Time;durP1;ratioP1;P1;durP2;ratioP2;P2;SDS_P1;SDS_P2;PMS_P1;PMS_P2;Temp;Humidity;BMP_temperature;BMP_pressure;BME280_temperature;BME280_humidity;BME280_pressure;Samples;Min_cycle;Max_cycle;Signal;HPM_P1;HPM_P2
2022/11/18 00:01:10;;;;;;;64.50;38.03;;;;;;;;;;10027132;28;20042;-61
2022/11/18 00:06:05;;;;;;;74.32;38.88;;;;;;;;;;10033069;28;20060;-61
2022/11/18 00:10:58;;;;;;;68.38;38.47;;;;;;;;;;10021982;28;20049;-61
2022/11/18 00:16:22;;;;;;;76.50;41.58;;;;;;;;;;10028679;28;20075;-62
2022/11/18 00:21:16;;;;;;;73.22;41.40;;;;;;;;;;10023963;28;20054;-62
2022/11/18 00:26:13;;;;;;;79.60;40.85;;;;;;;;;;10029011;28;20045;-62
2022/11/18 00:31:15;;;;;;;77.57;41.42;;;;;;;;;;10029152;28;20505;-62
2022/11/18 00:36:11;;;;;;;79.05;39.92;;;;;;;;;;10030157;28;20132;-62
2022/11/18 00:41:08;;;;;;;88.95;46.15;;;;;;;;;;10036862;28;20072;-62
2022/11/18 00:46:02;;;;;;;86.85;44.95;;;;;;;;;;10027344;28;20037;-62
2022/11/18 00:50:57;;;;;;;90.90;44.88;;;;;;;;;;10032818;28;20133;-62
2022/11/18 00:55:51;;;;;;;91.10;49.55;;;;;;;;;;10033141;28;20050;-62
2022/11/18 01:00:49;;;;;;;88.85;44.95;;;;;;;;;;10037465;28;20041;-62
2022/11/18 01:05:42;;;;;;;94.13;47.17;;;;;;;;;;10032250;28;20050;-61
2022/11/18 01:10:38;;;;;;;89.25;45.17;;;;;;;;;;10033526;28;20088;-62
2022/11/18 01:15:40;;;;;;;85.25;44.58;;;;;;;;;;10042662;28;20103;-62
2022/11/18 01:20:34;;;;;;;91.05;47.38;;;;;;;;;;10046406;28;20037;-63
2022/11/18 01:25:28;;;;;;;86.35;45.20;;;;;;;;;;10037183;28;20056;-62
2022/11/18 01:30:22;;;;;;;81.32;46.70;;;;;;;;;;10035496;28;20588;-62
2022/11/18 01:35:16;;;;;;;100.53;51.05;;;;;;;;;;10046067;28;20452;-63
2022/11/18 01:40:11;;;;;;;103.65;48.33;;;;;;;;;;10047284;28;20041;-63
2022/11/18 01:45:19;;;;;;;101.57;46.10;;;;;;;;;;10032492;28;20080;-63
2022/11/18 01:50:15;;;;;;;102.63;48.83;;;;;;;;;;10032243;28;20559;-63
2022/11/18 01:55:35;;;;;;;102.88;46.30;;;;;;;;;;10030886;28;20077;-63
2022/11/18 02:00:28;;;;;;;100.05;43.55;;;;;;;;;;10030791;28;20394;-63
2022/11/18 02:05:23;;;;;;;98.95;44.45;;;;;;;;;;10031510;28;20390;-63
2022/11/18 02:10:21;;;;;;;87.97;41.80;;;;;;;;;;10028396;28;20053;-63
2022/11/18 02:15:16;;;;;;;81.40;36.92;;;;;;;;;;10030530;28;20084;-63
2022/11/18 02:20:33;;;;;;;76.43;39.30;;;;;;;;;;10037446;28;20045;-63
2022/11/18 02:25:48;;;;;;;76.38;37.17;;;;;;;;;;10037597;28;20050;-62
2022/11/18 02:31:36;;;;;;;64.25;35.58;;;;;;;;;;10029254;28;20058;-63
2022/11/18 02:36:31;;;;;;;56.75;31.70;;;;;;;;;;10005531;28;20057;-62
2022/11/18 02:41:27;;;;;;;61.55;33.47;;;;;;;;;;10026382;28;20060;-63
2022/11/18 02:46:26;;;;;;;69.32;34.22;;;;;;;;;;10028261;28;20409;-63
2022/11/18 02:51:24;;;;;;;66.57;34.67;;;;;;;;;;10035806;28;20061;-63
2022/11/18 02:56:17;;;;;;;64.22;31.52;;;;;;;;;;10031114;28;20049;-63
2022/11/18 03:01:24;;;;;;;70.03;34.67;;;;;;;;;;10028894;28;20108;-63
2022/11/18 03:06:23;;;;;;;62.60;33.33;;;;;;;;;;10033307;28;20057;-63
2022/11/18 03:11:39;;;;;;;;;;;;;;;;;;10035643;28;20042;-63
2022/11/18 03:17:00;;;;;;;71.00;36.42;;;;;;;;;;10026749;28;20015;-63
2022/11/18 03:22:08;;;;;;;63.03;33.20;;;;;;;;;;10020114;28;20049;-62
2022/11/18 03:27:12;;;;;;;68.55;36.65;;;;;;;;;;10032481;28;20041;-63
2022/11/18 03:32:32;;;;;;;69.85;39.50;;;;;;;;;;10033789;28;20054;-62
2022/11/18 03:37:28;;;;;;;64.20;35.97;;;;;;;;;;10027765;28;20477;-63
2022/11/18 03:42:26;;;;;;;69.93;34.33;;;;;;;;;;10030945;28;20557;-63
2022/11/18 03:47:25;;;;;;;61.28;32.85;;;;;;;;;;10032056;28;20068;-62
2022/11/18 03:52:27;;;;;;;56.55;31.63;;;;;;;;;;10031523;28;20053;-63
2022/11/18 03:57:39;;;;;;;61.05;34.33;;;;;;;;;;10027529;28;20474;-63
2022/11/18 04:02:32;;;;;;;58.67;29.90;;;;;;;;;;10026284;28;20042;-63
2022/11/18 04:07:45;;;;;;;55.78;29.02;;;;;;;;;;10027656;28;20447;-63
2022/11/18 04:12:49;;;;;;;57.10;33.42;;;;;;;;;;10028110;28;20053;-63
2022/11/18 04:17:43;;;;;;;62.92;30.75;;;;;;;;;;10035707;28;20117;-63
2022/11/18 04:22:37;;;;;;;62.00;31.02;;;;;;;;;;10027659;28;20037;-63
2022/11/18 04:27:31;;;;;;;57.78;30.85;;;;;;;;;;10026908;28;20053;-63
2022/11/18 04:32:26;;;;;;;62.00;30.40;;;;;;;;;;10032167;28;20115;-63
2022/11/18 04:37:19;;;;;;;68.57;32.95;;;;;;;;;;10036484;28;20066;-63
2022/11/18 04:42:13;;;;;;;54.40;27.42;;;;;;;;;;10029344;28;20084;-63
2022/11/18 04:47:09;;;;;;;59.33;28.40;;;;;;;;;;10038402;28;20054;-63
2022/11/18 04:52:03;;;;;;;59.75;30.42;;;;;;;;;;10042137;28;20080;-63
2022/11/18 04:56:57;;;;;;;57.95;29.27;;;;;;;;;;10034980;28;20088;-62
2022/11/18 05:01:51;;;;;;;59.47;29.35;;;;;;;;;;10033905;28;20106;-63
2022/11/18 05:06:45;;;;;;;59.40;29.27;;;;;;;;;;10044994;28;20578;-63
2022/11/18 05:16:51;;;;;;;54.20;30.23;;;;;;;;;;10020916;28;20054;-63
2022/11/18 05:21:45;;;;;;;50.45;27.48;;;;;;;;;;10037484;28;20565;-63
2022/11/18 05:26:39;;;;;;;47.22;26.35;;;;;;;;;;10033882;28;20108;-63
2022/11/18 05:31:33;;;;;;;53.58;28.10;;;;;;;;;;10034882;28;20065;-63
2022/11/18 05:36:27;;;;;;;44.67;25.33;;;;;;;;;;10035055;28;20077;-63
2022/11/18 05:46:33;;;;;;;51.35;25.40;;;;;;;;;;10045320;28;20045;-63
2022/11/18 05:51:27;;;;;;;47.92;26.50;;;;;;;;;;10031461;28;20057;-63
2022/11/18 05:56:23;;;;;;;39.88;24.50;;;;;;;;;;10032558;28;20060;-63
2022/11/18 06:01:23;;;;;;;50.33;27.77;;;;;;;;;;10030605;28;20057;-63
2022/11/18 06:06:19;;;;;;;53.83;30.48;;;;;;;;;;10030548;28;20057;-63
2022/11/18 06:11:14;;;;;;;48.22;30.33;;;;;;;;;;10034883;28;20054;-63
2022/11/18 06:16:09;;;;;;;51.22;29.90;;;;;;;;;;10031238;28;20058;-63
2022/11/18 06:21:06;;;;;;;49.33;28.67;;;;;;;;;;10035765;28;20526;-63
2022/11/18 06:26:01;;;;;;;48.45;27.90;;;;;;;;;;10032289;28;20041;-63
2022/11/18 06:30:56;;;;;;;47.40;28.52;;;;;;;;;;10034192;28;20049;-62
2022/11/18 06:35:50;;;;;;;41.85;27.95;;;;;;;;;;10039907;28;20053;-62
2022/11/18 06:40:44;;;;;;;51.00;31.38;;;;;;;;;;10040261;28;20065;-62
2022/11/18 06:45:37;;;;;;;43.65;29.58;;;;;;;;;;10043513;28;20551;-63
2022/11/18 06:50:30;;;;;;;48.20;31.75;;;;;;;;;;10039228;28;20042;-62
2022/11/18 06:55:24;;;;;;;44.58;30.05;;;;;;;;;;10032763;28;20420;-62
2022/11/18 07:00:18;;;;;;;48.67;31.58;;;;;;;;;;10034917;28;20076;-62
2022/11/18 07:05:12;;;;;;;45.30;31.08;;;;;;;;;;10031778;28;20064;-63
2022/11/18 07:10:08;;;;;;;40.35;28.50;;;;;;;;;;10024605;28;20408;-64
2022/11/18 07:15:03;;;;;;;39.78;28.65;;;;;;;;;;10032586;28;20134;-64
2022/11/18 07:19:58;;;;;;;38.38;28.17;;;;;;;;;;10028766;28;20136;-64
2022/11/18 07:24:51;;;;;;;37.33;24.63;;;;;;;;;;10030227;28;20053;-64
2022/11/18 07:29:45;;;;;;;36.65;26.58;;;;;;;;;;10033713;28;20069;-64
2022/11/18 07:34:38;;;;;;;40.67;26.98;;;;;;;;;;10028630;28;20488;-64
2022/11/18 07:39:32;;;;;;;41.72;27.58;;;;;;;;;;10026882;28;20620;-64
2022/11/18 07:44:26;;;;;;;41.97;27.35;;;;;;;;;;10035657;28;20501;-64
2022/11/18 07:49:20;;;;;;;37.38;26.15;;;;;;;;;;10044352;28;20077;-64
2022/11/18 07:54:15;;;;;;;40.58;28.45;;;;;;;;;;10026022;28;20056;-64
2022/11/18 07:59:09;;;;;;;40.85;27.27;;;;;;;;;;10038901;28;20037;-64
2022/11/18 08:04:08;;;;;;;38.70;27.00;;;;;;;;;;10042294;28;20056;-64
2022/11/18 08:09:02;;;;;;;44.63;28.30;;;;;;;;;;10041996;28;20049;-64
2022/11/18 08:13:55;;;;;;;39.38;26.20;;;;;;;;;;10035452;28;20050;-63
2022/11/18 08:18:49;;;;;;;50.33;28.42;;;;;;;;;;10042136;28;20141;-63
2022/11/18 08:23:43;;;;;;;38.38;26.98;;;;;;;;;;10040657;28;20049;-63
2022/11/18 08:28:37;;;;;;;47.42;28.50;;;;;;;;;;10041439;28;20129;-63
2022/11/18 08:33:31;;;;;;;43.67;28.25;;;;;;;;;;10041411;28;20056;-64
2022/11/18 08:38:26;;;;;;;41.17;27.33;;;;;;;;;;10044735;28;20148;-64
2022/11/18 08:43:19;;;;;;;42.40;27.85;;;;;;;;;;10043239;28;20049;-64
2022/11/18 08:48:13;;;;;;;40.88;26.77;;;;;;;;;;10041344;28;20054;-64
2022/11/18 08:53:08;;;;;;;42.30;26.33;;;;;;;;;;10037827;28;20100;-64
2022/11/18 08:58:02;;;;;;;38.72;26.52;;;;;;;;;;10038687;28;20104;-64
2022/11/18 09:02:56;;;;;;;39.63;25.63;;;;;;;;;;10032261;28;20038;-64
2022/11/18 09:07:50;;;;;;;38.28;25.67;;;;;;;;;;10034561;28;20456;-64
2022/11/18 09:12:44;;;;;;;39.08;27.08;;;;;;;;;;10039117;28;20053;-64
2022/11/18 09:17:39;;;;;;;40.88;27.48;;;;;;;;;;10044858;28;20057;-64
2022/11/18 09:22:36;;;;;;;40.25;26.52;;;;;;;;;;10036358;28;20563;-64
2022/11/18 09:27:30;;;;;;;44.33;27.58;;;;;;;;;;10038638;28;20073;-64
2022/11/18 09:32:24;;;;;;;40.60;27.90;;;;;;;;;;10036210;28;20057;-64
2022/11/18 09:37:18;;;;;;;42.90;26.98;;;;;;;;;;10036649;28;20069;-64
2022/11/18 09:42:34;;;;;;;41.33;28.23;;;;;;;;;;10043446;28;20058;-63
2022/11/18 09:47:51;;;;;;;47.88;29.48;;;;;;;;;;10032909;28;20045;-65
2022/11/18 09:53:14;;;;;;;38.90;25.40;;;;;;;;;;10035875;28;20065;-63
2022/11/18 09:58:32;;;;;;;43.00;28.38;;;;;;;;;;10040665;28;20049;-63
2022/11/18 10:03:31;;;;;;;48.47;28.27;;;;;;;;;;10036885;28;20127;-63
2022/11/18 10:08:50;;;;;;;42.67;27.02;;;;;;;;;;10029877;28;20069;-62
2022/11/18 10:14:11;;;;;;;38.95;26.77;;;;;;;;;;10038393;28;20092;-63
2022/11/18 10:19:22;;;;;;;37.08;24.00;;;;;;;;;;10058912;28;20084;-64
2022/11/18 10:24:21;;;;;;;33.35;23.58;;;;;;;;;;10035841;28;20073;-64
2022/11/18 10:29:15;;;;;;;36.40;25.10;;;;;;;;;;10028938;28;20069;-62
2022/11/18 10:34:12;;;;;;;33.15;22.85;;;;;;;;;;10031711;28;20042;-61
2022/11/18 10:39:10;;;;;;;41.58;24.40;;;;;;;;;;10033650;28;20059;-62
2022/11/18 10:44:03;;;;;;;37.75;24.08;;;;;;;;;;10037093;28;20505;-63
2022/11/18 10:49:09;;;;;;;32.50;23.45;;;;;;;;;;10037636;28;20079;-63
2022/11/18 10:54:22;;;;;;;36.45;23.35;;;;;;;;;;10034403;28;20042;-63
2022/11/18 10:59:35;;;;;;;36.05;24.45;;;;;;;;;;10039526;28;20107;-62
2022/11/18 11:04:29;;;;;;;36.75;24.63;;;;;;;;;;10031729;28;20398;-63
2022/11/18 11:09:28;;;;;;;37.17;23.38;;;;;;;;;;10033885;28;20405;-62
2022/11/18 11:14:21;;;;;;;31.97;23.80;;;;;;;;;;10036679;28;20457;-63
2022/11/18 11:19:37;;;;;;;33.15;23.45;;;;;;;;;;10050247;28;20564;-63
2022/11/18 11:24:31;;;;;;;29.60;21.80;;;;;;;;;;10032231;28;20073;-63
2022/11/18 11:29:24;;;;;;;28.83;22.20;;;;;;;;;;10040893;28;20061;-62
2022/11/18 11:35:07;;;;;;;30.15;22.25;;;;;;;;;;10029313;28;20129;-64
2022/11/18 11:40:18;;;;;;;30.80;21.55;;;;;;;;;;10028503;28;20042;-65
2022/11/18 11:45:48;;;;;;;26.63;20.13;;;;;;;;;;10026066;28;20485;-64
2022/11/18 11:50:53;;;;;;;26.88;19.52;;;;;;;;;;10027951;28;20138;-63
2022/11/18 11:56:20;;;;;;;26.92;19.77;;;;;;;;;;10024331;28;20132;-64
2022/11/18 12:01:35;;;;;;;29.02;20.13;;;;;;;;;;10025901;28;20060;-63
2022/11/18 12:06:46;;;;;;;27.63;19.85;;;;;;;;;;10026788;28;20042;-63
2022/11/18 12:17:56;;;;;;;26.90;20.65;;;;;;;;;;10025906;28;20049;-63
2022/11/18 12:23:10;;;;;;;28.08;21.25;;;;;;;;;;10033983;28;20129;-64
2022/11/18 12:28:27;;;;;;;33.05;19.80;;;;;;;;;;10036108;28;20060;-63
2022/11/18 12:33:40;;;;;;;27.38;21.27;;;;;;;;;;10041497;28;20046;-63
2022/11/18 12:38:33;;;;;;;30.45;19.25;;;;;;;;;;10024898;28;20060;-63
2022/11/18 12:43:47;;;;;;;31.23;21.58;;;;;;;;;;10031427;28;20054;-63
2022/11/18 12:48:42;;;;;;;33.72;24.05;;;;;;;;;;10033364;28;20081;-64
2022/11/18 12:53:43;;;;;;;39.20;25.15;;;;;;;;;;10030450;28;20054;-64
2022/11/18 12:58:37;;;;;;;28.02;20.70;;;;;;;;;;10032972;28;20086;-62
2022/11/18 13:03:30;;;;;;;34.47;21.98;;;;;;;;;;10036049;28;20493;-62
2022/11/18 13:08:25;;;;;;;30.98;20.38;;;;;;;;;;10033974;28;20072;-63
2022/11/18 13:13:33;;;;;;;31.05;21.88;;;;;;;;;;10032644;28;20057;-63
2022/11/18 13:18:27;;;;;;;32.30;22.27;;;;;;;;;;10032893;28;20054;-64
2022/11/18 13:23:51;;;;;;;31.58;20.52;;;;;;;;;;10035001;28;20048;-63
2022/11/18 13:29:00;;;;;;;27.95;19.50;;;;;;;;;;10030983;28;20065;-63
2022/11/18 13:33:54;;;;;;;23.33;16.95;;;;;;;;;;10027686;28;20056;-64
2022/11/18 13:39:21;;;;;;;22.95;18.17;;;;;;;;;;10031718;28;20104;-64
2022/11/18 13:44:19;;;;;;;26.40;19.58;;;;;;;;;;10031663;28;20042;-64
2022/11/18 13:49:17;;;;;;;27.50;18.98;;;;;;;;;;10033466;28;20489;-64
2022/11/18 13:54:18;;;;;;;29.13;19.77;;;;;;;;;;10030832;28;20053;-64
2022/11/18 13:59:17;;;;;;;26.65;19.92;;;;;;;;;;10032479;28;20416;-64
2022/11/18 14:04:25;;;;;;;29.38;21.42;;;;;;;;;;10033364;28;20050;-63
2022/11/18 14:09:24;;;;;;;29.15;19.48;;;;;;;;;;10031583;28;20108;-63
2022/11/18 14:14:29;;;;;;;28.10;19.83;;;;;;;;;;10036578;28;20046;-63
2022/11/18 14:19:30;;;;;;;36.03;19.85;;;;;;;;;;10038254;28;20050;-63
2022/11/18 14:24:26;;;;;;;29.40;20.80;;;;;;;;;;10031605;28;20050;-64
2022/11/18 14:29:21;;;;;;;32.58;21.50;;;;;;;;;;10033122;28;20056;-64
2022/11/18 14:34:25;;;;;;;31.67;21.17;;;;;;;;;;10031679;28;20061;-64
2022/11/18 14:39:28;;;;;;;30.48;20.98;;;;;;;;;;10032799;28;20052;-64
2022/11/18 14:44:25;;;;;;;29.75;19.65;;;;;;;;;;10036823;28;20543;-63
2022/11/18 14:49:22;;;;;;;29.13;19.95;;;;;;;;;;10032282;28;20169;-64
2022/11/18 14:54:17;;;;;;;26.77;18.88;;;;;;;;;;10034638;28;20048;-65
2022/11/18 14:59:19;;;;;;;30.33;20.52;;;;;;;;;;10034885;28;20049;-65
2022/11/18 15:04:15;;;;;;;34.58;21.70;;;;;;;;;;10044550;28;20045;-64
2022/11/18 15:09:11;;;;;;;36.70;23.27;;;;;;;;;;10033563;28;20413;-65
2022/11/18 15:14:04;;;;;;;38.28;24.00;;;;;;;;;;10031815;28;20394;-66
2022/11/18 15:18:59;;;;;;;31.83;22.58;;;;;;;;;;10027405;28;20057;-65
2022/11/18 15:23:53;;;;;;;33.15;24.00;;;;;;;;;;10033657;28;20058;-67
2022/11/18 15:28:48;;;;;;;43.42;23.42;;;;;;;;;;10031105;28;20523;-65
2022/11/18 15:33:41;;;;;;;39.40;23.85;;;;;;;;;;10030164;28;20054;-65
2022/11/18 15:38:35;;;;;;;33.67;23.60;;;;;;;;;;10027863;28;20049;-65
2022/11/18 15:43:29;;;;;;;44.03;30.75;;;;;;;;;;10030342;28;20053;-65
2022/11/18 15:48:23;;;;;;;42.15;26.80;;;;;;;;;;10037211;28;20072;-65
2022/11/18 15:53:17;;;;;;;36.60;23.45;;;;;;;;;;10036144;28;20132;-65
2022/11/18 15:58:11;;;;;;;38.92;26.17;;;;;;;;;;10026417;28;20458;-65
2022/11/18 16:03:05;;;;;;;34.45;24.75;;;;;;;;;;10028013;28;20050;-65
2022/11/18 16:08:00;;;;;;;36.88;22.67;;;;;;;;;;10037624;28;20049;-64
2022/11/18 16:12:54;;;;;;;37.83;24.20;;;;;;;;;;10033457;28;20464;-64
2022/11/18 16:17:48;;;;;;;42.05;25.38;;;;;;;;;;10037290;28;20124;-64
2022/11/18 16:22:42;;;;;;;40.40;26.92;;;;;;;;;;10040465;28;20136;-65
2022/11/18 16:27:38;;;;;;;43.45;28.98;;;;;;;;;;10028889;28;20507;-64
2022/11/18 16:32:35;;;;;;;48.22;32.00;;;;;;;;;;10033480;28;20046;-64
2022/11/18 16:37:29;;;;;;;48.45;31.42;;;;;;;;;;10028388;28;20064;-63
2022/11/18 16:42:23;;;;;;;65.45;40.17;;;;;;;;;;10028339;28;20078;-64
2022/11/18 16:47:17;;;;;;;60.63;38.17;;;;;;;;;;10032594;28;20460;-63
2022/11/18 16:52:11;;;;;;;59.63;36.00;;;;;;;;;;10032817;28;20390;-63
2022/11/18 16:57:07;;;;;;;51.97;33.35;;;;;;;;;;10030809;28;20562;-66
2022/11/18 17:02:01;;;;;;;66.53;35.22;;;;;;;;;;10031272;28;20415;-66
2022/11/18 17:07:02;;;;;;;61.47;35.28;;;;;;;;;;10027367;28;20080;-65
2022/11/18 17:11:57;;;;;;;53.05;35.15;;;;;;;;;;10034538;28;20050;-66
2022/11/18 17:16:51;;;;;;;58.97;37.20;;;;;;;;;;10031171;28;20420;-65
2022/11/18 17:21:45;;;;;;;51.40;35.38;;;;;;;;;;10036533;28;20056;-65
2022/11/18 17:26:40;;;;;;;59.05;35.63;;;;;;;;;;10032722;28;20066;-63
2022/11/18 17:31:34;;;;;;;48.95;36.53;;;;;;;;;;10032743;28;20455;-64
2022/11/18 17:36:27;;;;;;;42.40;31.25;;;;;;;;;;10031754;28;20041;-63
2022/11/18 17:46:35;;;;;;;67.18;43.75;;;;;;;;;;10033290;28;20505;-64
2022/11/18 17:51:31;;;;;;;57.88;43.60;;;;;;;;;;10059918;28;20472;-64
2022/11/18 17:56:26;;;;;;;50.08;36.20;;;;;;;;;;10038537;28;20052;-64
2022/11/18 18:01:21;;;;;;;44.22;33.60;;;;;;;;;;10037958;28;20054;-64
2022/11/18 18:06:15;;;;;;;62.72;42.75;;;;;;;;;;10041151;28;20561;-64
2022/11/18 18:11:28;;;;;;;48.13;37.13;;;;;;;;;;10032736;28;20046;-64
2022/11/18 18:16:21;;;;;;;59.55;39.67;;;;;;;;;;10038506;28;20045;-64
2022/11/18 18:21:15;;;;;;;59.05;36.65;;;;;;;;;;10055015;28;20407;-64
2022/11/18 18:26:10;;;;;;;49.10;33.60;;;;;;;;;;10037978;28;20050;-64
2022/11/18 18:31:08;;;;;;;46.33;36.22;;;;;;;;;;10045219;28;20049;-64
2022/11/18 18:36:05;;;;;;;57.20;39.60;;;;;;;;;;10033820;28;20050;-64
2022/11/18 18:41:09;;;;;;;57.88;39.70;;;;;;;;;;10038702;28;20072;-64
2022/11/18 18:46:28;;;;;;;52.50;39.65;;;;;;;;;;10045278;28;20409;-64
2022/11/18 18:51:24;;;;;;;52.55;36.88;;;;;;;;;;10029974;28;20413;-65
2022/11/18 18:56:18;;;;;;;55.70;36.20;;;;;;;;;;10054964;28;20514;-63
2022/11/18 19:01:15;;;;;;;47.28;34.50;;;;;;;;;;10037849;28;20053;-64
2022/11/18 19:06:16;;;;;;;49.50;30.83;;;;;;;;;;10033435;28;20045;-64
2022/11/18 19:16:42;;;;;;;50.30;35.33;;;;;;;;;;10042739;28;20058;-64
2022/11/18 19:21:35;;;;;;;55.58;42.35;;;;;;;;;;10027311;28;20042;-64
2022/11/18 19:26:29;;;;;;;39.83;31.52;;;;;;;;;;10036743;28;20080;-63
2022/11/18 19:31:24;;;;;;;37.35;25.60;;;;;;;;;;10030310;28;20058;-65
2022/11/18 19:36:17;;;;;;;87.00;54.72;;;;;;;;;;10033705;28;20109;-64
2022/11/18 19:41:12;;;;;;;45.13;35.08;;;;;;;;;;10033171;28;20061;-64
2022/11/18 19:46:06;;;;;;;31.17;24.83;;;;;;;;;;10031641;28;20111;-66
2022/11/18 19:51:11;;;;;;;22.20;17.40;;;;;;;;;;10028763;28;20419;-71
2022/11/18 19:56:07;;;;;;;29.55;22.50;;;;;;;;;;10027012;28;20459;-64
2022/11/18 20:01:16;;;;;;;26.20;21.55;;;;;;;;;;10025870;28;20470;-68
2022/11/18 20:06:11;;;;;;;17.17;13.38;;;;;;;;;;10026210;28;20133;-66
2022/11/18 20:11:06;;;;;;;23.58;16.92;;;;;;;;;;10026742;28;20413;-66
2022/11/18 20:16:06;;;;;;;18.77;14.15;;;;;;;;;;10035508;28;20398;-69
2022/11/18 20:21:08;;;;;;;19.70;14.75;;;;;;;;;;10026690;28;20042;-66
2022/11/18 20:26:10;;;;;;;19.92;14.73;;;;;;;;;;10026484;28;20057;-67
2022/11/18 20:31:04;;;;;;;20.58;14.77;;;;;;;;;;10029842;28;20049;-68
2022/11/18 20:36:42;;;;;;;19.40;14.35;;;;;;;;;;10026983;28;20085;-71
2022/11/18 20:41:36;;;;;;;19.42;15.35;;;;;;;;;;10025787;28;20072;-68
2022/11/18 20:46:30;;;;;;;18.90;14.00;;;;;;;;;;10026921;28;20069;-67
2022/11/18 20:51:25;;;;;;;19.40;15.77;;;;;;;;;;10032339;28;20045;-67
2022/11/18 20:56:22;;;;;;;26.13;16.85;;;;;;;;;;10029839;28;20405;-67
2022/11/18 21:01:39;;;;;;;18.20;15.90;;;;;;;;;;10028981;28;20057;-67
2022/11/18 21:06:33;;;;;;;19.63;13.93;;;;;;;;;;10031229;28;20046;-65
2022/11/18 21:11:28;;;;;;;16.27;14.57;;;;;;;;;;10029562;28;20046;-66
2022/11/18 21:16:22;;;;;;;22.70;15.23;;;;;;;;;;10035942;28;20069;-65
2022/11/18 21:26:30;;;;;;;17.73;15.85;;;;;;;;;;10029233;28;20455;-67
2022/11/18 21:31:24;;;;;;;32.80;23.05;;;;;;;;;;10032086;28;20117;-67
2022/11/18 21:36:19;;;;;;;24.30;17.90;;;;;;;;;;10025201;28;20053;-67
2022/11/18 21:41:13;;;;;;;17.58;14.68;;;;;;;;;;10033107;28;20742;-67
2022/11/18 21:46:08;;;;;;;21.42;16.13;;;;;;;;;;10028356;28;20050;-68
2022/11/18 21:51:04;;;;;;;27.80;20.65;;;;;;;;;;10028601;28;20054;-68
2022/11/18 21:56:06;;;;;;;20.80;16.45;;;;;;;;;;10028209;28;20046;-68
2022/11/18 22:01:26;;;;;;;17.27;14.95;;;;;;;;;;10031400;28;20046;-67
2022/11/18 22:06:20;;;;;;;13.00;11.70;;;;;;;;;;10030692;28;20556;-69
2022/11/18 22:11:15;;;;;;;15.85;13.63;;;;;;;;;;10029029;28;20112;-67
2022/11/18 22:16:16;;;;;;;18.52;15.32;;;;;;;;;;10030871;28;20485;-67
2022/11/18 22:21:18;;;;;;;19.88;15.85;;;;;;;;;;10030408;28;20121;-67
2022/11/18 22:26:17;;;;;;;18.15;12.77;;;;;;;;;;10029232;28;20057;-66
2022/11/18 22:31:17;;;;;;;15.52;12.38;;;;;;;;;;10029700;28;20116;-66
2022/11/18 22:36:12;;;;;;;;;;;;;;;;;;10030808;28;20050;-64
2022/11/18 22:46:40;;;;;;;15.77;9.35;;;;;;;;;;10029515;28;20050;-66
2022/11/18 22:51:35;;;;;;;8.50;7.60;;;;;;;;;;10029881;28;20046;-66
2022/11/18 22:56:28;;;;;;;14.70;7.45;;;;;;;;;;10029606;28;20133;-66
2022/11/18 23:01:22;;;;;;;10.32;8.05;;;;;;;;;;10029179;28;20136;-66
2022/11/18 23:06:16;;;;;;;11.90;8.40;;;;;;;;;;10028860;28;20120;-66
2022/11/18 23:11:12;;;;;;;10.60;7.63;;;;;;;;;;10029001;28;20054;-66
2022/11/18 23:16:07;;;;;;;12.02;8.70;;;;;;;;;;10028740;28;20527;-66
2022/11/18 23:21:03;;;;;;;10.77;8.93;;;;;;;;;;10028847;28;20419;-66
2022/11/18 23:26:08;;;;;;;14.35;11.73;;;;;;;;;;10028213;28;20500;-67
2022/11/18 23:31:25;;;;;;;13.35;10.23;;;;;;;;;;10026267;28;20468;-66
2022/11/18 23:36:19;;;;;;;9.60;8.57;;;;;;;;;;10025549;28;20061;-66
2022/11/18 23:41:15;;;;;;;13.27;9.80;;;;;;;;;;10030928;28;20551;-66
2022/11/18 23:46:09;;;;;;;11.43;8.90;;;;;;;;;;10037389;28;20456;-66
2022/11/18 23:51:06;;;;;;;12.10;8.43;;;;;;;;;;10027727;28;20428;-66
2022/11/18 23:56:01;;;;;;;9.45;7.55;;;;;;;;;;10037328;28;20054;-66
